Time;durP1;ratioP1;P1;durP2;ratioP2;P2;SDS_P1;SDS_P2;PMS_P1;PMS_P2;Temp;Humidity;BMP_temperature;BMP_pressure;BME280_temperature;BME280_humidity;BME280_pressure;Samples;Min_cycle;Max_cycle;Signal;HPM_P1;HPM_P2
2021/06/20 00:02:24;;;;;;;42.35;16.10;;;;;;;;;;5027157;28;20041;-69
2021/06/20 00:04:49;;;;;;;44.28;16.05;;;;;;;;;;5026782;28;20055;-72
2021/06/20 00:07:15;;;;;;;41.03;16.85;;;;;;;;;;5030293;28;20049;-67
2021/06/20 00:09:41;;;;;;;49.30;17.45;;;;;;;;;;5045140;28;20068;-71
2021/06/20 00:12:07;;;;;;;44.97;18.25;;;;;;;;;;5038601;28;20040;-72
2021/06/20 00:14:33;;;;;;;33.03;17.27;;;;;;;;;;5044462;28;20067;-72
2021/06/20 00:16:58;;;;;;;47.40;17.52;;;;;;;;;;5025369;28;20068;-72
2021/06/20 00:19:24;;;;;;;54.25;16.55;;;;;;;;;;5033693;28;20041;-70
2021/06/20 00:21:49;;;;;;;47.88;17.00;;;;;;;;;;5023715;28;20382;-69
2021/06/20 00:24:15;;;;;;;47.75;17.10;;;;;;;;;;5024435;28;20045;-70
2021/06/20 00:26:41;;;;;;;64.82;21.70;;;;;;;;;;5027065;28;20526;-70
2021/06/20 00:29:06;;;;;;;57.15;20.67;;;;;;;;;;5042957;28;20029;-69
2021/06/20 00:31:32;;;;;;;61.15;19.40;;;;;;;;;;5044976;28;20346;-73
2021/06/20 00:33:58;;;;;;;53.22;20.25;;;;;;;;;;5032911;28;20512;-67
2021/06/20 00:36:23;;;;;;;52.88;20.67;;;;;;;;;;5024528;28;20112;-75
2021/06/20 00:38:49;;;;;;;57.20;22.50;;;;;;;;;;5024917;28;20049;-72
2021/06/20 00:41:15;;;;;;;47.15;21.42;;;;;;;;;;5006779;28;20333;-72
2021/06/20 00:43:40;;;;;;;55.08;22.80;;;;;;;;;;5040047;28;20127;-66
2021/06/20 00:46:08;;;;;;;53.70;19.45;;;;;;;;;;5043208;28;20904;-80
2021/06/20 00:48:34;;;;;;;54.90;20.83;;;;;;;;;;5042377;28;20085;-72
2021/06/20 00:51:00;;;;;;;61.67;28.45;;;;;;;;;;5026746;28;20033;-66
2021/06/20 00:53:25;;;;;;;69.75;27.83;;;;;;;;;;5023270;28;20041;-69
2021/06/20 00:55:51;;;;;;;69.22;29.60;;;;;;;;;;5041584;28;20124;-72
2021/06/20 00:58:18;;;;;;;63.92;27.83;;;;;;;;;;5032365;28;20095;-68
2021/06/20 01:00:47;;;;;;;68.45;22.60;;;;;;;;;;5024038;28;20041;-64
2021/06/20 01:03:13;;;;;;;62.97;26.73;;;;;;;;;;5024602;28;20063;-69
2021/06/20 01:05:38;;;;;;;59.97;25.80;;;;;;;;;;5024087;28;20068;-70
2021/06/20 01:08:04;;;;;;;56.30;25.13;;;;;;;;;;5024308;28;20409;-74
2021/06/20 01:10:35;;;;;;;59.88;24.45;;;;;;;;;;5038989;28;20191;-80
2021/06/20 01:13:01;;;;;;;56.80;28.92;;;;;;;;;;5030096;28;20336;-77
2021/06/20 01:15:27;;;;;;;74.35;31.80;;;;;;;;;;5044229;28;20032;-74
2021/06/20 01:17:53;;;;;;;77.53;38.60;;;;;;;;;;5027404;28;20037;-74
2021/06/20 01:20:19;;;;;;;77.78;35.92;;;;;;;;;;5025672;28;20394;-76
2021/06/20 01:22:49;;;;;;;64.45;30.88;;;;;;;;;;5025982;28;20052;-65
2021/06/20 01:25:16;;;;;;;49.63;25.52;;;;;;;;;;5039126;28;20028;-68
2021/06/20 01:27:45;;;;;;;59.00;24.02;;;;;;;;;;5038997;28;20060;-79
2021/06/20 01:30:16;;;;;;;54.13;28.17;;;;;;;;;;5034336;28;20030;-79
2021/06/20 01:32:42;;;;;;;57.88;26.45;;;;;;;;;;5007427;28;20033;-64
2021/06/20 01:35:12;;;;;;;50.85;23.80;;;;;;;;;;5024764;28;20029;-76
2021/06/20 01:37:38;;;;;;;60.25;22.40;;;;;;;;;;5025602;28;20285;-76
2021/06/20 01:40:05;;;;;;;50.53;21.40;;;;;;;;;;5008012;28;20037;-77
2021/06/20 01:42:31;;;;;;;50.85;21.50;;;;;;;;;;5027221;28;20040;-75
2021/06/20 01:44:57;;;;;;;57.65;21.42;;;;;;;;;;5043280;28;20124;-78
2021/06/20 01:47:24;;;;;;;55.90;26.75;;;;;;;;;;5041017;28;20053;-79
2021/06/20 01:49:50;;;;;;;66.18;28.02;;;;;;;;;;5023910;28;20136;-68
2021/06/20 01:52:18;;;;;;;89.97;51.40;;;;;;;;;;5024757;28;20884;-70
2021/06/20 01:54:50;;;;;;;104.28;54.55;;;;;;;;;;5035394;28;20065;-80
2021/06/20 01:57:25;;;;;;;95.90;50.33;;;;;;;;;;5026521;28;20037;-68
2021/06/20 01:59:50;;;;;;;60.22;30.75;;;;;;;;;;5044554;28;20040;-77
2021/06/20 02:02:19;;;;;;;62.92;28.50;;;;;;;;;;5045057;28;20040;-79
2021/06/20 02:04:46;;;;;;;73.55;30.35;;;;;;;;;;5011449;28;20106;-67
2021/06/20 02:07:12;;;;;;;88.13;31.50;;;;;;;;;;5047708;28;20346;-80
2021/06/20 02:09:38;;;;;;;74.82;31.52;;;;;;;;;;5023976;28;20120;-77
2021/06/20 02:12:04;;;;;;;81.45;31.45;;;;;;;;;;5039321;28;20462;-74
2021/06/20 02:14:32;;;;;;;59.33;30.08;;;;;;;;;;5055206;28;20079;-65
2021/06/20 02:16:58;;;;;;;82.30;30.33;;;;;;;;;;5040335;28;20755;-75
2021/06/20 02:19:24;;;;;;;69.82;30.73;;;;;;;;;;5014197;28;20120;-78
2021/06/20 02:21:50;;;;;;;77.35;31.20;;;;;;;;;;5021293;28;20128;-75
2021/06/20 02:24:16;;;;;;;69.65;29.88;;;;;;;;;;5022942;28;20036;-73
2021/06/20 02:26:41;;;;;;;61.17;30.42;;;;;;;;;;5023761;28;20134;-71
2021/06/20 02:29:09;;;;;;;79.63;30.52;;;;;;;;;;5040471;28;20106;-70
2021/06/20 02:31:35;;;;;;;68.47;30.15;;;;;;;;;;5055899;28;20102;-69
2021/06/20 02:34:01;;;;;;;87.07;33.97;;;;;;;;;;5048017;28;20025;-74
2021/06/20 02:36:26;;;;;;;81.15;35.35;;;;;;;;;;5045990;28;20060;-73
2021/06/20 02:38:52;;;;;;;72.35;33.58;;;;;;;;;;5025034;28;20571;-72
2021/06/20 02:41:19;;;;;;;85.78;33.58;;;;;;;;;;5024753;28;20041;-72
2021/06/20 02:43:44;;;;;;;83.18;33.33;;;;;;;;;;5040036;28;20040;-70
2021/06/20 02:46:10;;;;;;;80.03;34.75;;;;;;;;;;5033663;28;20056;-70
2021/06/20 02:48:35;;;;;;;85.68;36.28;;;;;;;;;;5034672;28;20152;-71
2021/06/20 02:51:01;;;;;;;73.50;32.58;;;;;;;;;;5031670;28;20099;-75
2021/06/20 02:53:27;;;;;;;88.97;37.38;;;;;;;;;;5040164;28;20116;-73
2021/06/20 02:55:52;;;;;;;92.85;36.67;;;;;;;;;;5048218;28;20043;-74
2021/06/20 02:58:18;;;;;;;88.82;34.30;;;;;;;;;;5045984;28;20037;-65
2021/06/20 03:00:44;;;;;;;75.90;34.83;;;;;;;;;;5043383;28;20064;-75
2021/06/20 03:03:09;;;;;;;83.15;37.05;;;;;;;;;;5027144;28;20037;-76
2021/06/20 03:05:35;;;;;;;93.03;35.07;;;;;;;;;;5025257;28;20428;-75
2021/06/20 03:08:00;;;;;;;94.32;36.03;;;;;;;;;;5024930;28;20030;-76
2021/06/20 03:10:26;;;;;;;92.80;38.50;;;;;;;;;;5043747;28;20517;-76
2021/06/20 03:12:52;;;;;;;84.93;33.92;;;;;;;;;;5045760;28;20040;-75
2021/06/20 03:15:17;;;;;;;89.20;35.13;;;;;;;;;;5046803;28;20052;-68
2021/06/20 03:17:43;;;;;;;74.32;33.63;;;;;;;;;;5044987;28;20033;-73
2021/06/20 03:20:09;;;;;;;82.57;35.25;;;;;;;;;;5029493;28;20076;-75
2021/06/20 03:22:35;;;;;;;71.80;34.25;;;;;;;;;;5019774;28;20044;-74
2021/06/20 03:25:00;;;;;;;91.38;35.35;;;;;;;;;;5040845;28;20045;-66
2021/06/20 03:27:27;;;;;;;77.70;33.10;;;;;;;;;;5044206;28;20038;-77
2021/06/20 03:29:53;;;;;;;83.72;32.42;;;;;;;;;;5043483;28;20073;-72
2021/06/20 03:32:21;;;;;;;79.25;31.90;;;;;;;;;;5026004;28;20115;-72
2021/06/20 03:34:47;;;;;;;73.55;32.13;;;;;;;;;;5024195;28;20091;-72
2021/06/20 03:37:13;;;;;;;76.05;32.10;;;;;;;;;;5027128;28;20470;-77
2021/06/20 03:39:38;;;;;;;71.05;34.58;;;;;;;;;;5035400;28;20135;-81
2021/06/20 03:42:04;;;;;;;79.85;33.80;;;;;;;;;;5035925;28;20128;-66
2021/06/20 03:44:30;;;;;;;83.90;36.80;;;;;;;;;;5019750;28;20059;-80
2021/06/20 03:46:57;;;;;;;80.30;34.58;;;;;;;;;;5033123;28;20054;-76
2021/06/20 03:49:26;;;;;;;82.03;35.58;;;;;;;;;;5027291;28;20481;-74
2021/06/20 03:51:52;;;;;;;77.20;34.22;;;;;;;;;;5041766;28;20033;-75
2021/06/20 03:54:17;;;;;;;73.38;33.83;;;;;;;;;;5032945;28;20457;-74
2021/06/20 03:56:44;;;;;;;68.85;32.38;;;;;;;;;;5030698;28;20041;-71
2021/06/20 03:59:10;;;;;;;79.63;33.28;;;;;;;;;;5033232;28;20060;-71
2021/06/20 04:01:36;;;;;;;84.35;34.70;;;;;;;;;;5044210;28;20090;-74
2021/06/20 04:04:02;;;;;;;78.93;36.35;;;;;;;;;;5060047;28;20033;-75
2021/06/20 04:06:29;;;;;;;82.43;33.50;;;;;;;;;;5044920;28;20127;-73
2021/06/20 04:08:55;;;;;;;75.03;33.67;;;;;;;;;;5032901;28;20115;-69
2021/06/20 04:11:20;;;;;;;72.30;31.67;;;;;;;;;;5041315;28;20037;-75
2021/06/20 04:13:46;;;;;;;69.93;35.28;;;;;;;;;;5049676;28;20392;-76
2021/06/20 04:16:11;;;;;;;74.28;32.65;;;;;;;;;;5033268;28;20041;-76
2021/06/20 04:18:37;;;;;;;72.30;29.55;;;;;;;;;;5024329;28;20052;-76
2021/06/20 04:21:03;;;;;;;76.53;31.00;;;;;;;;;;5029074;28;20033;-80
2021/06/20 04:23:31;;;;;;;63.28;27.60;;;;;;;;;;5044677;28;20036;-77
2021/06/20 04:25:56;;;;;;;77.00;28.60;;;;;;;;;;5031973;28;20056;-73
2021/06/20 04:28:22;;;;;;;86.05;26.42;;;;;;;;;;5035747;28;20087;-73
2021/06/20 04:30:53;;;;;;;56.25;24.95;;;;;;;;;;5021488;28;20044;-70
2021/06/20 04:33:21;;;;;;;64.68;22.85;;;;;;;;;;5030609;28;20034;-78
2021/06/20 04:35:47;;;;;;;56.17;20.20;;;;;;;;;;5030083;28;20033;-77
2021/06/20 04:38:12;;;;;;;48.33;20.05;;;;;;;;;;5036671;28;20523;-69
2021/06/20 04:40:40;;;;;;;51.17;20.05;;;;;;;;;;5040325;28;20052;-70
2021/06/20 04:43:09;;;;;;;59.65;20.17;;;;;;;;;;5038001;28;20056;-64
2021/06/20 04:45:35;;;;;;;56.03;20.92;;;;;;;;;;5035777;28;20283;-74
2021/06/20 04:48:01;;;;;;;48.08;18.10;;;;;;;;;;5032879;28;20537;-71
2021/06/20 04:50:26;;;;;;;60.30;22.17;;;;;;;;;;5034384;28;20390;-70
2021/06/20 04:52:52;;;;;;;48.80;18.50;;;;;;;;;;5035382;28;20378;-72
2021/06/20 04:55:18;;;;;;;44.08;18.42;;;;;;;;;;5036210;28;20041;-71
2021/06/20 04:57:43;;;;;;;46.53;18.38;;;;;;;;;;5032495;28;20421;-73
2021/06/20 05:00:09;;;;;;;49.78;19.73;;;;;;;;;;5037360;28;20037;-69
2021/06/20 05:02:35;;;;;;;49.17;17.85;;;;;;;;;;5015637;28;20098;-71
2021/06/20 05:05:02;;;;;;;35.45;16.10;;;;;;;;;;5018475;28;20040;-71
2021/06/20 05:07:28;;;;;;;42.25;16.50;;;;;;;;;;5000586;28;20556;-72
2021/06/20 05:09:54;;;;;;;52.35;18.60;;;;;;;;;;5034731;28;20055;-71
2021/06/20 05:12:20;;;;;;;51.30;18.23;;;;;;;;;;5035202;28;20037;-70
2021/06/20 05:14:46;;;;;;;54.25;16.27;;;;;;;;;;5038394;28;20468;-68
2021/06/20 05:17:12;;;;;;;50.78;16.85;;;;;;;;;;5007833;28;20111;-69
2021/06/20 05:19:39;;;;;;;34.83;12.75;;;;;;;;;;5023890;28;20144;-70
2021/06/20 05:22:05;;;;;;;40.83;13.32;;;;;;;;;;5023706;28;20033;-69
2021/06/20 05:24:30;;;;;;;29.20;11.43;;;;;;;;;;5024792;28;20091;-70
2021/06/20 05:26:56;;;;;;;28.67;11.88;;;;;;;;;;5014808;28;20044;-68
2021/06/20 05:29:22;;;;;;;40.30;11.90;;;;;;;;;;5040348;28;20120;-68
2021/06/20 05:31:48;;;;;;;25.17;11.52;;;;;;;;;;5020734;28;20033;-69
2021/06/20 05:34:13;;;;;;;44.65;10.50;;;;;;;;;;5039803;28;20386;-70
2021/06/20 05:36:39;;;;;;;34.22;10.00;;;;;;;;;;5039358;28;20080;-69
2021/06/20 05:39:05;;;;;;;27.10;9.68;;;;;;;;;;5025111;28;20481;-69
2021/06/20 05:41:31;;;;;;;25.17;7.43;;;;;;;;;;5043275;28;20048;-68
2021/06/20 05:43:56;;;;;;;19.23;6.22;;;;;;;;;;5043356;28;20173;-68
2021/06/20 05:46:22;;;;;;;19.08;5.95;;;;;;;;;;5039995;28;20060;-72
2021/06/20 05:48:49;;;;;;;25.25;5.80;;;;;;;;;;5009584;28;20064;-69
2021/06/20 05:51:16;;;;;;;22.95;6.10;;;;;;;;;;5035281;28;20040;-70
2021/06/20 05:53:42;;;;;;;23.95;6.50;;;;;;;;;;5006814;28;20037;-69
2021/06/20 05:56:08;;;;;;;23.50;6.22;;;;;;;;;;5023422;28;20118;-71
2021/06/20 05:58:34;;;;;;;24.52;7.15;;;;;;;;;;5037386;28;20071;-70
2021/06/20 06:01:00;;;;;;;25.50;7.15;;;;;;;;;;5041874;28;20102;-72
2021/06/20 06:03:25;;;;;;;22.90;7.70;;;;;;;;;;5044182;28;20488;-71
2021/06/20 06:05:51;;;;;;;27.90;7.75;;;;;;;;;;5026551;28;20049;-70
2021/06/20 06:08:17;;;;;;;29.15;7.30;;;;;;;;;;5037493;28;20408;-71
2021/06/20 06:10:43;;;;;;;23.90;7.43;;;;;;;;;;5028098;28;20041;-69
2021/06/20 06:13:11;;;;;;;19.17;7.40;;;;;;;;;;5030347;28;20128;-73
2021/06/20 06:15:37;;;;;;;15.23;7.15;;;;;;;;;;5046238;28;20141;-70
2021/06/20 06:18:02;;;;;;;26.27;6.30;;;;;;;;;;5043879;28;20044;-69
2021/06/20 06:20:28;;;;;;;22.20;6.45;;;;;;;;;;5035400;28;20564;-73
2021/06/20 06:22:55;;;;;;;19.33;6.03;;;;;;;;;;5030157;28;20052;-71
2021/06/20 06:25:21;;;;;;;14.43;6.40;;;;;;;;;;5019081;28;20033;-73
2021/06/20 06:27:47;;;;;;;24.50;5.90;;;;;;;;;;5046764;28;20419;-75
2021/06/20 06:30:13;;;;;;;18.17;6.32;;;;;;;;;;5030708;28;20116;-74
2021/06/20 06:32:39;;;;;;;18.42;6.07;;;;;;;;;;5028683;28;20696;-74
2021/06/20 06:35:05;;;;;;;18.58;5.82;;;;;;;;;;5041328;28;20516;-72
2021/06/20 06:37:31;;;;;;;19.65;5.85;;;;;;;;;;5037711;28;20039;-65
2021/06/20 06:39:57;;;;;;;23.05;5.43;;;;;;;;;;5035086;28;20033;-73
2021/06/20 06:42:26;;;;;;;21.77;6.32;;;;;;;;;;5036871;28;20052;-74
2021/06/20 06:44:56;;;;;;;;;;;;;;;;;;5024438;28;20085;-65
2021/06/20 06:47:22;;;;;;;22.17;6.10;;;;;;;;;;5034704;28;19924;-76
2021/06/20 06:49:48;;;;;;;24.48;6.40;;;;;;;;;;5037727;28;20041;-73
2021/06/20 06:52:14;;;;;;;23.67;5.93;;;;;;;;;;5036054;28;20068;-74
2021/06/20 06:54:40;;;;;;;24.08;5.93;;;;;;;;;;5032201;28;20075;-70
2021/06/20 06:57:05;;;;;;;23.48;5.68;;;;;;;;;;5035684;28;20114;-73
2021/06/20 06:59:31;;;;;;;16.30;5.20;;;;;;;;;;5039166;28;20041;-75
2021/06/20 07:01:57;;;;;;;13.65;5.10;;;;;;;;;;5035847;28;20499;-71
2021/06/20 07:04:23;;;;;;;18.65;4.85;;;;;;;;;;5007038;28;20082;-73
2021/06/20 07:06:49;;;;;;;12.75;4.65;;;;;;;;;;5037531;28;20409;-71
2021/06/20 07:09:15;;;;;;;18.23;4.97;;;;;;;;;;5040138;28;20390;-73
2021/06/20 07:11:40;;;;;;;23.30;5.30;;;;;;;;;;5037479;28;20094;-67
2021/06/20 07:14:06;;;;;;;13.85;4.60;;;;;;;;;;5037143;28;20128;-74
2021/06/20 07:16:32;;;;;;;16.15;4.63;;;;;;;;;;5037531;28;20039;-73
2021/06/20 07:18:57;;;;;;;22.55;4.70;;;;;;;;;;5036996;28;20037;-74
2021/06/20 07:21:23;;;;;;;14.32;4.95;;;;;;;;;;5038497;28;20032;-71
2021/06/20 07:23:49;;;;;;;18.92;5.38;;;;;;;;;;5041722;28;20169;-69
2021/06/20 07:26:14;;;;;;;20.13;4.90;;;;;;;;;;5042749;28;20043;-72
2021/06/20 07:28:40;;;;;;;18.45;5.57;;;;;;;;;;5036658;28;20056;-71
2021/06/20 07:31:06;;;;;;;17.30;5.13;;;;;;;;;;5034757;28;20074;-73
2021/06/20 07:33:31;;;;;;;16.58;5.60;;;;;;;;;;5037236;28;20413;-73
2021/06/20 07:35:57;;;;;;;14.45;5.28;;;;;;;;;;5036995;28;20112;-72
2021/06/20 07:38:23;;;;;;;14.23;5.25;;;;;;;;;;5028185;28;20068;-73
2021/06/20 07:40:50;;;;;;;19.73;5.32;;;;;;;;;;5033626;28;20837;-75
2021/06/20 07:43:16;;;;;;;16.42;4.85;;;;;;;;;;5004521;28;20037;-72
2021/06/20 07:45:42;;;;;;;26.75;5.13;;;;;;;;;;5037215;28;20168;-73
2021/06/20 07:48:08;;;;;;;12.48;5.15;;;;;;;;;;5041374;28;20045;-74
2021/06/20 07:50:34;;;;;;;15.25;4.72;;;;;;;;;;5032200;28;20048;-75
2021/06/20 07:53:00;;;;;;;16.45;4.53;;;;;;;;;;5020607;28;20417;-72
2021/06/20 07:55:26;;;;;;;11.57;4.47;;;;;;;;;;5041278;28;20139;-73
2021/06/20 07:57:51;;;;;;;13.15;4.50;;;;;;;;;;5024276;28;20495;-69
2021/06/20 08:00:17;;;;;;;9.15;4.30;;;;;;;;;;5043933;28;20116;-72
2021/06/20 08:02:43;;;;;;;14.20;4.80;;;;;;;;;;5026560;28;20095;-70
2021/06/20 08:05:10;;;;;;;16.80;5.10;;;;;;;;;;5035771;28;20037;-70
2021/06/20 08:07:36;;;;;;;20.85;4.53;;;;;;;;;;5022872;28;20840;-70
2021/06/20 08:10:01;;;;;;;17.25;4.70;;;;;;;;;;5042114;28;20073;-71
2021/06/20 08:12:28;;;;;;;13.93;4.60;;;;;;;;;;5044624;28;20394;-72
2021/06/20 08:14:54;;;;;;;17.85;4.40;;;;;;;;;;5033533;28;20041;-71
2021/06/20 08:17:20;;;;;;;21.85;4.78;;;;;;;;;;5027191;28;20032;-70
2021/06/20 08:19:46;;;;;;;18.33;5.05;;;;;;;;;;5016288;28;20197;-71
2021/06/20 08:22:12;;;;;;;10.93;4.72;;;;;;;;;;5031117;28;20130;-70
2021/06/20 08:24:38;;;;;;;14.27;4.80;;;;;;;;;;5033049;28;20147;-69
2021/06/20 08:27:05;;;;;;;11.65;4.20;;;;;;;;;;5041780;28;20110;-70
2021/06/20 08:29:31;;;;;;;14.05;4.80;;;;;;;;;;5020984;28;20100;-73
2021/06/20 08:31:57;;;;;;;16.95;5.10;;;;;;;;;;5038620;28;20036;-72
2021/06/20 08:34:23;;;;;;;20.98;4.68;;;;;;;;;;5041951;28;20302;-69
2021/06/20 08:36:49;;;;;;;20.83;4.82;;;;;;;;;;5041731;28;20045;-70
2021/06/20 08:39:15;;;;;;;10.90;4.32;;;;;;;;;;5043301;28;20033;-70
2021/06/20 08:41:41;;;;;;;16.08;5.18;;;;;;;;;;5040104;28;20137;-71
2021/06/20 08:44:30;;;;;;;12.52;4.88;;;;;;;;;;5016371;28;20240;-70
2021/06/20 08:46:56;;;;;;;20.73;5.10;;;;;;;;;;5038592;28;20053;-70
2021/06/20 08:49:23;;;;;;;9.18;3.97;;;;;;;;;;5006581;28;20037;-74
2021/06/20 08:51:50;;;;;;;15.85;4.65;;;;;;;;;;5033286;28;20041;-68
2021/06/20 08:54:16;;;;;;;13.43;4.60;;;;;;;;;;5022728;28;20088;-64
2021/06/20 08:56:42;;;;;;;21.38;4.95;;;;;;;;;;5029547;28;20037;-68
2021/06/20 08:59:08;;;;;;;17.88;5.13;;;;;;;;;;5032198;28;20045;-73
2021/06/20 09:01:34;;;;;;;19.35;4.97;;;;;;;;;;5005790;28;20036;-71
2021/06/20 09:04:00;;;;;;;16.25;4.85;;;;;;;;;;5021694;28;20037;-74
2021/06/20 09:06:26;;;;;;;13.65;4.63;;;;;;;;;;5033204;28;20061;-78
2021/06/20 09:08:53;;;;;;;18.23;4.82;;;;;;;;;;5014429;28;20071;-77
2021/06/20 09:11:31;;;;;;;22.63;4.55;;;;;;;;;;5001752;28;20037;-70
2021/06/20 09:14:09;;;;;;;13.15;4.72;;;;;;;;;;5035070;28;20037;-78
2021/06/20 09:16:36;;;;;;;16.33;5.00;;;;;;;;;;5035110;28;20370;-77
2021/06/20 09:19:02;;;;;;;23.17;5.38;;;;;;;;;;5002193;28;20492;-76
2021/06/20 09:21:28;;;;;;;29.02;4.97;;;;;;;;;;5033936;28;20061;-69
2021/06/20 09:23:58;;;;;;;21.13;4.63;;;;;;;;;;5034700;28;20040;-70
2021/06/20 09:26:37;;;;;;;18.42;5.03;;;;;;;;;;5037435;28;20041;-70
2021/06/20 09:29:04;;;;;;;21.30;5.00;;;;;;;;;;5040238;28;20113;-72
2021/06/20 09:31:43;;;;;;;16.45;4.45;;;;;;;;;;5037474;28;20403;-71
2021/06/20 09:34:09;;;;;;;12.70;4.78;;;;;;;;;;4997337;28;20772;-71
2021/06/20 09:36:34;;;;;;;20.85;4.97;;;;;;;;;;5034937;28;20508;-75
2021/06/20 09:39:00;;;;;;;26.90;5.18;;;;;;;;;;4997049;28;20029;-70
2021/06/20 09:41:26;;;;;;;16.65;4.63;;;;;;;;;;5026594;28;20094;-72
2021/06/20 09:43:53;;;;;;;14.00;4.53;;;;;;;;;;5033423;28;20040;-75
2021/06/20 09:46:18;;;;;;;14.63;5.40;;;;;;;;;;5017736;28;20109;-69
2021/06/20 09:48:45;;;;;;;25.08;4.82;;;;;;;;;;5015350;28;20037;-75
2021/06/20 09:51:26;;;;;;;24.88;4.93;;;;;;;;;;5030327;28;20037;-69
2021/06/20 09:53:51;;;;;;;;;;;;;;;;;;5035840;28;20024;-74
2021/06/20 09:56:21;;;;;;;22.50;5.18;;;;;;;;;;5033353;28;20535;-71
2021/06/20 09:58:54;;;;;;;25.10;5.10;;;;;;;;;;5033245;28;20080;-74
2021/06/20 10:01:20;;;;;;;27.20;4.70;;;;;;;;;;5033048;28;20081;-71
2021/06/20 10:03:46;;;;;;;22.83;4.82;;;;;;;;;;4985868;28;20069;-70
2021/06/20 10:06:13;;;;;;;23.50;4.50;;;;;;;;;;5029265;28;20466;-75
2021/06/20 10:08:39;;;;;;;18.70;4.70;;;;;;;;;;5022578;28;20033;-77
2021/06/20 10:11:05;;;;;;;20.48;5.38;;;;;;;;;;5031675;28;20037;-78
2021/06/20 10:13:31;;;;;;;17.10;5.47;;;;;;;;;;5013150;28;20038;-76
2021/06/20 10:16:17;;;;;;;9.48;4.47;;;;;;;;;;5030770;28;20029;-76
2021/06/20 10:18:51;;;;;;;15.35;4.45;;;;;;;;;;5049153;28;20052;-73
2021/06/20 10:21:30;;;;;;;29.02;5.05;;;;;;;;;;5036066;28;20076;-72
2021/06/20 10:24:22;;;;;;;21.13;4.95;;;;;;;;;;5027453;28;20512;-74
2021/06/20 10:26:51;;;;;;;10.13;4.38;;;;;;;;;;5015522;28;20080;-75
2021/06/20 10:29:18;;;;;;;16.80;4.70;;;;;;;;;;5035555;28;20036;-75
2021/06/20 10:31:44;;;;;;;22.23;5.60;;;;;;;;;;5008863;28;20394;-74
2021/06/20 10:34:16;;;;;;;13.48;4.70;;;;;;;;;;5036710;28;20406;-73
2021/06/20 10:36:50;;;;;;;18.52;4.47;;;;;;;;;;5002783;28;20041;-74
2021/06/20 10:39:16;;;;;;;22.90;4.68;;;;;;;;;;5030241;28;20038;-74
2021/06/20 10:41:41;;;;;;;18.20;5.32;;;;;;;;;;5032409;28;20080;-74
2021/06/20 10:44:07;;;;;;;21.58;4.47;;;;;;;;;;5031345;28;20521;-77
2021/06/20 10:46:34;;;;;;;21.83;5.47;;;;;;;;;;5024940;28;20509;-70
2021/06/20 10:49:01;;;;;;;19.05;4.85;;;;;;;;;;5016708;28;20041;-74
2021/06/20 10:51:30;;;;;;;23.08;5.18;;;;;;;;;;5020960;28;20102;-76
2021/06/20 10:53:56;;;;;;;10.73;4.18;;;;;;;;;;5016041;28;20061;-73
2021/06/20 10:56:23;;;;;;;20.20;4.43;;;;;;;;;;5032053;28;20520;-75
2021/06/20 10:58:49;;;;;;;18.00;4.60;;;;;;;;;;5043860;28;20048;-74
2021/06/20 11:01:16;;;;;;;16.92;4.40;;;;;;;;;;5033107;28;20036;-73
2021/06/20 11:03:51;;;;;;;12.63;4.28;;;;;;;;;;5020085;28;20507;-71
2021/06/20 11:06:17;;;;;;;24.73;4.70;;;;;;;;;;5004512;28;20037;-73
2021/06/20 11:09:04;;;;;;;29.08;4.10;;;;;;;;;;5032458;28;20580;-81
2021/06/20 11:11:32;;;;;;;13.00;4.55;;;;;;;;;;5022698;28;20047;-80
2021/06/20 11:14:00;;;;;;;20.20;4.40;;;;;;;;;;5041212;28;20508;-76
2021/06/20 11:16:30;;;;;;;19.45;4.63;;;;;;;;;;5013634;28;20055;-76
2021/06/20 11:19:08;;;;;;;20.42;4.50;;;;;;;;;;5034538;28;20942;-75
2021/06/20 11:21:35;;;;;;;16.10;4.97;;;;;;;;;;5020597;28;20101;-78
2021/06/20 11:24:01;;;;;;;16.90;5.35;;;;;;;;;;5026540;28;20421;-69
2021/06/20 11:26:26;;;;;;;21.65;4.47;;;;;;;;;;5034496;28;20059;-76
2021/06/20 11:29:03;;;;;;;23.08;4.30;;;;;;;;;;5020433;28;20072;-75
2021/06/20 11:31:29;;;;;;;13.73;4.45;;;;;;;;;;5039547;28;20453;-71
2021/06/20 11:33:55;;;;;;;12.30;4.20;;;;;;;;;;5001217;28;20029;-69
2021/06/20 11:36:22;;;;;;;31.65;4.90;;;;;;;;;;5019509;28;20033;-71
2021/06/20 11:38:48;;;;;;;17.52;4.20;;;;;;;;;;5043373;28;20048;-74
2021/06/20 11:41:18;;;;;;;14.52;4.88;;;;;;;;;;5025409;28;20044;-71
2021/06/20 11:43:54;;;;;;;23.85;4.38;;;;;;;;;;5044261;28;20118;-68
2021/06/20 11:46:22;;;;;;;13.20;4.50;;;;;;;;;;5039776;28;20080;-72
2021/06/20 11:48:51;;;;;;;16.13;5.35;;;;;;;;;;5006190;28;20195;-72
2021/06/20 11:51:26;;;;;;;17.88;4.82;;;;;;;;;;5007588;28;20035;-73
2021/06/20 11:54:24;;;;;;;11.95;4.70;;;;;;;;;;5039419;28;20464;-67
2021/06/20 11:56:50;;;;;;;17.70;5.70;;;;;;;;;;4988576;28;20046;-69
2021/06/20 11:59:28;;;;;;;18.98;5.10;;;;;;;;;;4954820;28;20038;-67
2021/06/20 12:01:54;;;;;;;19.83;6.22;;;;;;;;;;5001578;28;20057;-70
2021/06/20 12:04:21;;;;;;;18.27;5.15;;;;;;;;;;4985029;28;20067;-69
2021/06/20 12:06:47;;;;;;;25.70;6.10;;;;;;;;;;5001879;28;20786;-69
2021/06/20 12:09:14;;;;;;;13.55;5.15;;;;;;;;;;4980605;28;20168;-71
2021/06/20 12:11:40;;;;;;;19.80;5.60;;;;;;;;;;4950836;28;20685;-70
2021/06/20 12:14:06;;;;;;;29.15;6.25;;;;;;;;;;5000997;28;20622;-68
2021/06/20 12:16:46;;;;;;;21.60;5.43;;;;;;;;;;4984777;28;20362;-69
2021/06/20 12:19:12;;;;;;;25.77;5.20;;;;;;;;;;4990499;28;20064;-69
2021/06/20 12:21:38;;;;;;;17.80;5.47;;;;;;;;;;4981893;28;20038;-69
2021/06/20 12:24:04;;;;;;;22.60;5.43;;;;;;;;;;4993061;28;20065;-68
2021/06/20 12:26:30;;;;;;;14.93;5.88;;;;;;;;;;4946350;28;20549;-69
2021/06/20 12:29:02;;;;;;;23.52;5.30;;;;;;;;;;4978886;28;20503;-71
2021/06/20 12:31:27;;;;;;;18.33;5.55;;;;;;;;;;4992189;28;20414;-70
2021/06/20 12:34:06;;;;;;;13.32;5.00;;;;;;;;;;5010392;28;20668;-74
2021/06/20 12:36:34;;;;;;;14.35;5.20;;;;;;;;;;5021705;28;20048;-74
2021/06/20 12:39:03;;;;;;;14.43;5.30;;;;;;;;;;5037734;28;20048;-72
2021/06/20 12:41:29;;;;;;;17.55;5.18;;;;;;;;;;5024356;28;20037;-72
2021/06/20 12:44:01;;;;;;;20.80;6.10;;;;;;;;;;5038998;28;20060;-71
2021/06/20 12:46:30;;;;;;;25.42;5.68;;;;;;;;;;5007099;28;20049;-74
2021/06/20 12:48:59;;;;;;;15.50;4.82;;;;;;;;;;5027819;28;20041;-73
2021/06/20 12:51:33;;;;;;;22.30;4.97;;;;;;;;;;5037965;28;20125;-74
2021/06/20 12:54:06;;;;;;;16.98;4.50;;;;;;;;;;5017606;28;20036;-72
2021/06/20 12:56:32;;;;;;;16.38;5.55;;;;;;;;;;5036991;28;20039;-74
2021/06/20 12:59:05;;;;;;;20.65;5.55;;;;;;;;;;5020488;28;20041;-73
2021/06/20 13:01:35;;;;;;;22.10;5.18;;;;;;;;;;5031500;28;20566;-74
2021/06/20 13:04:08;;;;;;;21.23;5.78;;;;;;;;;;5032434;28;20065;-73
2021/06/20 13:06:33;;;;;;;13.60;4.68;;;;;;;;;;5035568;28;20098;-74
2021/06/20 13:08:59;;;;;;;19.00;5.43;;;;;;;;;;5019136;28;20020;-76
2021/06/20 13:11:24;;;;;;;21.15;4.80;;;;;;;;;;5033047;28;20041;-75
2021/06/20 13:13:50;;;;;;;19.75;5.75;;;;;;;;;;5020429;28;20041;-70
2021/06/20 13:16:16;;;;;;;21.33;5.60;;;;;;;;;;5034989;28;20069;-69
2021/06/20 13:18:41;;;;;;;27.60;5.63;;;;;;;;;;5028712;28;20029;-75
2021/06/20 13:21:07;;;;;;;19.02;5.25;;;;;;;;;;5029899;28;20052;-74
2021/06/20 13:23:33;;;;;;;19.33;4.75;;;;;;;;;;5037015;28;20030;-75
2021/06/20 13:25:58;;;;;;;18.08;5.25;;;;;;;;;;5008494;28;20036;-69
2021/06/20 13:28:24;;;;;;;25.48;5.93;;;;;;;;;;5034154;28;20102;-73
2021/06/20 13:30:49;;;;;;;20.27;5.40;;;;;;;;;;5040027;28;20037;-68
2021/06/20 13:33:15;;;;;;;13.77;5.63;;;;;;;;;;5035997;28;20025;-70
2021/06/20 13:35:41;;;;;;;14.38;5.85;;;;;;;;;;5034602;28;20072;-71
2021/06/20 13:38:06;;;;;;;22.65;6.15;;;;;;;;;;5037180;28;20071;-69
2021/06/20 13:40:32;;;;;;;30.55;6.40;;;;;;;;;;4998847;28;20622;-71
2021/06/20 13:42:58;;;;;;;13.80;5.53;;;;;;;;;;5025278;28;20466;-68
2021/06/20 13:45:24;;;;;;;15.50;5.15;;;;;;;;;;5016864;28;20129;-73
2021/06/20 13:47:50;;;;;;;17.77;5.72;;;;;;;;;;5028039;28;20462;-74
2021/06/20 13:50:17;;;;;;;27.52;5.97;;;;;;;;;;5034334;28;20569;-74
2021/06/20 13:52:43;;;;;;;17.58;5.72;;;;;;;;;;5000349;28;20040;-71
2021/06/20 13:55:10;;;;;;;23.10;5.40;;;;;;;;;;5035702;28;20116;-69
2021/06/20 13:57:36;;;;;;;19.83;5.60;;;;;;;;;;5017935;28;20034;-72
2021/06/20 14:00:03;;;;;;;16.15;6.30;;;;;;;;;;5038914;28;20039;-72
2021/06/20 14:02:33;;;;;;;19.35;5.03;;;;;;;;;;5033914;28;20055;-76
2021/06/20 14:04:59;;;;;;;31.02;5.72;;;;;;;;;;5014251;28;20036;-71
2021/06/20 14:07:25;;;;;;;16.27;5.57;;;;;;;;;;5031934;28;20737;-72
2021/06/20 14:09:50;;;;;;;17.80;5.25;;;;;;;;;;5033451;28;20059;-71
2021/06/20 14:12:17;;;;;;;18.80;5.00;;;;;;;;;;5038059;28;20128;-73
2021/06/20 14:14:43;;;;;;;17.20;5.68;;;;;;;;;;5020114;28;20040;-71
2021/06/20 14:17:08;;;;;;;14.20;6.03;;;;;;;;;;5034306;28;20034;-70
2021/06/20 14:19:34;;;;;;;14.10;5.97;;;;;;;;;;5034585;28;20029;-71
2021/06/20 14:22:00;;;;;;;10.93;5.45;;;;;;;;;;5040101;28;20099;-76
2021/06/20 14:24:26;;;;;;;22.77;5.85;;;;;;;;;;5033164;28;20056;-73
2021/06/20 14:26:52;;;;;;;18.88;5.72;;;;;;;;;;5031082;28;20052;-69